createdAt,value
2022-10-22T00:01:55.200Z,152279.03
2022-10-22T00:04:25.521Z,152285.50
2022-10-22T00:06:55.771Z,152277.72
2022-10-22T00:09:25.970Z,152254.50
2022-10-22T00:11:56.193Z,152251.88
2022-10-22T00:14:26.296Z,152257.06
2022-10-22T00:17:01.119Z,152214.41
2022-10-22T00:19:31.210Z,152193.75
2022-10-22T00:22:05.676Z,152180.88
2022-10-22T00:24:36.605Z,152143.38
2022-10-22T00:27:07.919Z,152161.50
2022-10-22T00:29:38.238Z,152184.69
2022-10-22T00:32:10.870Z,152201.53
2022-10-22T00:34:40.911Z,152200.25
2022-10-22T00:37:11.081Z,152196.34
2022-10-22T00:39:41.135Z,152174.38
2022-10-22T00:42:15.901Z,152201.53
2022-10-22T00:45:03.193Z,152232.50
2022-10-22T00:47:39.458Z,152218.28
2022-10-22T00:50:14.957Z,152213.13
2022-10-22T00:52:45.089Z,152211.84
2022-10-22T00:55:16.457Z,152202.81
2022-10-22T00:57:47.291Z,152204.06
2022-10-22T01:00:18.593Z,152204.06
2022-10-22T01:02:52.864Z,152192.47
2022-10-22T01:05:23.269Z,152178.25
2022-10-22T01:07:55.737Z,152192.47
2022-10-22T01:10:42.713Z,152175.69
2022-10-22T01:13:25.820Z,152192.47
2022-10-22T01:16:03.707Z,152187.31
2022-10-22T01:18:44.713Z,152155.00
2022-10-22T01:21:23.832Z,152161.50
2022-10-22T01:24:18.595Z,152156.31
2022-10-22T01:27:02.847Z,152153.72
2022-10-22T01:29:40.691Z,152169.22
2022-10-22T01:32:14.566Z,152182.16
2022-10-22T01:34:58.236Z,152192.47
2022-10-22T01:37:33.025Z,152200.25
2022-10-22T01:40:06.383Z,152213.13
2022-10-22T01:42:36.443Z,152217.00
2022-10-22T01:45:14.962Z,152217.00
2022-10-22T01:47:54.383Z,152201.53
2022-10-22T01:51:10.498Z,152202.81
2022-10-22T01:53:48.557Z,152237.69
2022-10-22T01:56:36.318Z,152241.56
2022-10-22T01:59:11.324Z,152244.13
2022-10-22T02:01:51.062Z,152253.16
2022-10-22T02:04:25.192Z,152254.50
2022-10-22T02:06:58.346Z,152259.66
2022-10-22T02:09:31.936Z,152262.22
2022-10-22T02:12:06.750Z,152264.84
2022-10-22T02:14:40.438Z,152270.00
2022-10-22T02:17:19.109Z,152271.28
2022-10-22T02:19:55.333Z,152268.66
2022-10-22T02:22:26.602Z,152270.00
2022-10-22T02:24:56.805Z,152251.88
2022-10-22T02:27:33.884Z,152244.13
2022-10-22T02:30:07.832Z,152246.72
2022-10-22T02:32:44.674Z,152238.94
2022-10-22T02:35:18.817Z,152231.22
2022-10-22T02:37:49.690Z,152228.63
2022-10-22T02:40:20.216Z,152222.19
2022-10-22T02:42:51.270Z,152223.47
2022-10-22T02:45:26.110Z,152222.19
2022-10-22T02:47:59.084Z,152214.41
2022-10-22T02:50:29.335Z,152201.53
2022-10-22T02:52:59.555Z,152196.34
2022-10-22T02:55:29.657Z,152189.88
2022-10-22T02:58:00.039Z,152200.25
2022-10-22T03:00:32.941Z,152210.56
2022-10-22T03:03:06.584Z,152210.56
2022-10-22T03:05:36.641Z,152205.41
2022-10-22T03:08:07.083Z,152198.91
2022-10-22T03:10:37.100Z,152184.69
2022-10-22T03:13:07.450Z,152174.38
2022-10-22T03:15:40.249Z,152171.81
2022-10-22T03:18:13.112Z,152162.75
2022-10-22T03:20:43.174Z,152152.44
2022-10-22T03:23:14.215Z,152144.66
2022-10-22T03:25:46.536Z,152139.50
2022-10-22T03:28:18.763Z,152133.06
2022-10-22T03:30:51.805Z,152133.06
2022-10-22T03:33:24.467Z,152125.28
2022-10-22T03:35:54.690Z,152125.28
2022-10-22T03:38:24.967Z,152122.72
2022-10-22T03:40:55.297Z,152090.44
2022-10-22T03:43:25.512Z,152103.38
2022-10-22T03:45:56.394Z,152104.63
2022-10-22T03:48:29.207Z,152094.31
2022-10-22T03:50:59.430Z,152100.75
2022-10-22T03:53:29.454Z,152096.91
2022-10-22T03:55:59.489Z,152094.31
2022-10-22T03:58:29.500Z,152095.59
2022-10-22T04:01:01.237Z,152090.44
2022-10-22T04:03:34.561Z,152090.44
2022-10-22T04:06:05.675Z,152091.75
2022-10-22T04:08:36.399Z,152090.44
2022-10-22T04:11:06.774Z,152078.81
2022-10-22T04:13:37.059Z,152082.72
2022-10-22T04:16:11.694Z,152085.28
2022-10-22T04:18:45.597Z,152089.16
2022-10-22T04:21:16.367Z,152094.31
2022-10-22T04:23:49.237Z,152099.47
2022-10-22T04:26:20.800Z,152091.75
2022-10-22T04:28:52.328Z,152102.09
2022-10-22T04:31:25.286Z,152099.47
2022-10-22T04:33:59.759Z,152099.47
2022-10-22T04:36:31.392Z,152096.91
2022-10-22T04:39:02.813Z,152099.47
2022-10-22T04:41:35.132Z,152094.31
2022-10-22T04:44:05.911Z,152095.59
2022-10-22T04:46:37.911Z,152089.16
2022-10-22T04:49:10.871Z,152090.44
2022-10-22T04:51:41.088Z,152091.75
2022-10-22T04:54:11.170Z,152091.75
2022-10-22T04:56:42.519Z,152081.38
2022-10-22T04:59:15.481Z,152082.72
2022-10-22T05:01:47.169Z,152081.38
2022-10-22T05:04:21.207Z,152086.59
2022-10-22T05:06:51.607Z,152094.31
2022-10-22T05:09:23.890Z,152091.75
2022-10-22T05:11:55.634Z,152090.44
2022-10-22T05:14:27.932Z,152096.91
2022-10-22T05:16:58.061Z,152069.78
2022-10-22T05:19:32.444Z,152085.28
2022-10-22T05:22:04.241Z,152093.03
2022-10-22T05:24:37.632Z,152093.03
2022-10-22T05:27:07.873Z,152100.75
2022-10-22T05:29:38.101Z,152105.91
2022-10-22T05:32:08.333Z,152111.09
2022-10-22T05:34:41.346Z,152121.47
2022-10-22T05:37:11.576Z,152144.66
2022-10-22T05:39:41.820Z,152171.81
2022-10-22T05:42:12.020Z,152176.97
2022-10-22T05:44:42.205Z,152201.53
2022-10-22T05:47:12.999Z,152214.41
2022-10-22T05:49:45.877Z,152213.13
2022-10-22T05:52:15.898Z,152217.00
2022-10-22T05:54:46.397Z,152223.47
2022-10-22T05:57:16.481Z,152228.63
2022-10-22T05:59:46.622Z,152237.69
2022-10-22T06:02:17.334Z,152249.28
2022-10-22T06:04:50.927Z,152260.94
2022-10-22T06:07:20.985Z,152282.88
2022-10-22T06:09:51.524Z,152294.53
2022-10-22T06:12:21.765Z,152311.31
2022-10-22T06:14:51.914Z,152322.94
2022-10-22T06:17:23.253Z,152337.16
2022-10-22T06:19:56.182Z,152343.66
2022-10-22T06:22:26.356Z,152353.97
2022-10-22T06:24:56.733Z,152355.25
2022-10-22T06:27:28.168Z,152355.25
2022-10-22T06:29:58.428Z,152363.03
2022-10-22T06:32:28.469Z,152370.75
2022-10-22T06:35:02.724Z,152375.94
2022-10-22T06:37:32.955Z,152392.75
2022-10-22T06:40:03.072Z,152406.94
2022-10-22T06:42:33.369Z,152421.16
2022-10-22T06:45:03.549Z,152438.00
2022-10-22T06:47:33.879Z,152466.38
2022-10-22T06:50:07.003Z,152488.44
2022-10-22T06:52:37.104Z,152520.75
2022-10-22T06:55:07.912Z,152551.81
2022-10-22T06:57:38.578Z,152590.59
2022-10-22T07:00:11.391Z,152646.19
2022-10-22T07:02:41.751Z,152660.44
2022-10-22T07:05:15.917Z,152673.34
2022-10-22T07:07:45.613Z,152690.19
2022-10-22T07:10:15.685Z,152713.44
2022-10-22T07:12:45.905Z,152740.63
2022-10-22T07:15:16.651Z,152741.91
2022-10-22T07:17:47.065Z,152760.03
2022-10-22T07:20:21.786Z,152758.75
2022-10-22T07:22:51.864Z,152766.50
2022-10-22T07:25:22.181Z,152748.41
2022-10-22T07:27:52.568Z,152774.28
2022-10-22T07:30:25.120Z,152815.66
2022-10-22T07:32:55.321Z,152859.66
2022-10-22T07:35:28.180Z,152915.31
2022-10-22T07:37:58.228Z,152977.50
2022-10-22T07:40:28.950Z,153003.38
2022-10-22T07:42:59.399Z,153002.09
2022-10-22T07:45:32.003Z,153011.19
2022-10-22T07:48:02.610Z,153039.63
2022-10-22T07:50:36.113Z,153031.88
2022-10-22T07:53:06.516Z,153004.66
2022-10-22T07:55:37.922Z,153013.75
2022-10-22T07:58:08.207Z,153007.28
2022-10-22T08:00:41.833Z,153013.75
2022-10-22T08:03:12.591Z,153039.63
2022-10-22T08:05:45.686Z,153078.47
2022-10-22T08:08:17.472Z,153125.13
2022-10-22T08:10:48.082Z,153175.63
2022-10-22T08:13:18.597Z,153235.22
2022-10-22T08:15:51.500Z,153271.47
2022-10-22T08:18:25.330Z,153261.13
2022-10-22T08:20:59.421Z,153315.53
2022-10-22T08:23:37.546Z,153377.81
2022-10-22T08:26:08.894Z,153456.88
2022-10-22T08:28:39.252Z,153480.19
2022-10-22T08:31:12.318Z,153559.28
2022-10-22T08:33:43.470Z,153642.28
2022-10-22T08:36:16.804Z,153659.19
2022-10-22T08:38:49.982Z,153612.47
2022-10-22T08:41:22.216Z,153630.63
2022-10-22T08:44:14.300Z,153664.34
2022-10-22T08:47:11.511Z,153704.63
2022-10-22T08:49:55.801Z,153695.47
2022-10-22T08:52:29.546Z,153711.09
2022-10-22T08:55:01.197Z,153727.94
2022-10-22T08:57:52.175Z,153709.81
2022-10-22T09:00:29.617Z,153711.09
2022-10-22T09:03:13.222Z,153689.00
2022-10-22T09:05:49.427Z,153679.91
2022-10-22T09:08:23.402Z,153641.00
2022-10-22T09:10:58.936Z,153630.63
2022-10-22T09:13:29.327Z,153616.34
2022-10-22T09:16:02.945Z,153626.72
2022-10-22T09:18:38.281Z,153598.19
2022-10-22T09:21:22.319Z,153622.81
2022-10-22T09:24:08.302Z,153665.66
2022-10-22T09:26:41.842Z,153659.19
2022-10-22T09:29:20.878Z,153673.41
2022-10-22T09:31:51.443Z,153711.09
2022-10-22T09:34:24.207Z,153757.78
2022-10-22T09:37:01.791Z,153785.03
2022-10-22T09:39:44.648Z,153823.97
2022-10-22T09:42:18.605Z,153862.91
2022-10-22T09:44:56.175Z,153859.00
2022-10-22T09:47:43.224Z,153923.91
2022-10-22T09:50:23.737Z,153966.75
2022-10-22T09:53:02.915Z,154012.19
2022-10-22T09:55:36.004Z,154049.84
2022-10-22T09:58:06.743Z,154091.44
2022-10-22T10:00:42.521Z,154148.53
2022-10-22T10:03:36.443Z,154168.03
2022-10-22T10:06:07.698Z,154217.38
2022-10-22T10:08:40.121Z,154196.63
2022-10-22T10:11:20.330Z,154256.38
2022-10-22T10:14:00.502Z,154265.47
2022-10-22T10:16:48.200Z,154282.34
2022-10-22T10:19:34.187Z,154317.47
2022-10-22T10:22:14.763Z,154326.56
2022-10-22T10:25:13.050Z,154348.63
2022-10-22T10:27:51.730Z,154356.44
2022-10-22T10:30:24.698Z,154362.94
2022-10-22T10:33:08.636Z,154361.66
2022-10-22T10:35:48.476Z,154383.75
2022-10-22T10:38:36.013Z,154444.81
2022-10-22T10:41:19.931Z,154557.94
2022-10-22T10:43:59.035Z,154563.13
2022-10-22T10:46:38.887Z,154529.31
2022-10-22T10:49:13.496Z,154590.41
2022-10-22T10:51:56.460Z,154628.19
2022-10-22T10:54:35.957Z,154634.66
2022-10-22T10:57:14.968Z,154652.91
2022-10-22T11:00:03.442Z,154723.13
2022-10-22T11:02:52.722Z,154732.22
2022-10-22T11:05:33.989Z,154784.22
2022-10-22T11:08:07.705Z,154824.56
2022-10-22T11:10:42.196Z,154836.31
2022-10-22T11:13:21.555Z,154875.34
2022-10-22T11:16:01.753Z,154891.00
2022-10-22T11:18:37.186Z,154917.00
2022-10-22T11:21:17.575Z,154924.78
2022-10-22T11:23:53.403Z,154956.06
2022-10-22T11:26:35.157Z,154957.34
2022-10-22T11:29:08.074Z,154946.94
2022-10-22T11:31:52.672Z,154983.34
2022-10-22T11:34:33.663Z,154976.88
2022-10-22T11:37:06.409Z,155013.28
2022-10-22T11:39:44.300Z,155014.59
2022-10-22T11:42:21.533Z,155035.44
2022-10-22T11:45:02.943Z,155049.78
2022-10-22T11:47:39.454Z,155061.47
2022-10-22T11:50:25.851Z,155079.72
2022-10-22T11:55:49.004Z,155116.19
2022-10-22T11:58:35.904Z,155118.78
2022-10-22T12:01:28.266Z,155105.78
2022-10-22T12:04:25.192Z,155091.41
2022-10-22T12:07:02.701Z,155082.28
2022-10-22T12:09:35.892Z,155078.38
2022-10-22T12:12:16.502Z,155082.28
2022-10-22T12:14:59.990Z,155078.38
2022-10-22T12:17:31.992Z,155099.25
2022-10-22T12:20:14.698Z,155109.69
2022-10-22T12:22:46.677Z,155097.94
2022-10-22T12:25:22.681Z,155118.78
2022-10-22T12:27:57.990Z,155103.16
2022-10-22T12:30:31.600Z,155084.91
2022-10-22T12:33:05.311Z,155088.78
2022-10-22T12:35:47.211Z,155058.84
2022-10-22T12:38:20.928Z,155038.03
2022-10-22T12:40:52.307Z,155058.84
2022-10-22T12:43:30.658Z,155047.16
2022-10-22T12:46:03.518Z,155043.22
2022-10-22T12:48:41.168Z,155048.44
2022-10-22T12:51:20.652Z,155023.69
2022-10-22T12:53:55.009Z,155027.63
2022-10-22T12:56:29.523Z,155022.41
2022-10-22T12:59:03.696Z,154983.34
2022-10-22T13:01:41.195Z,154988.56
2022-10-22T13:04:24.066Z,154971.66
2022-10-22T13:07:09.910Z,154972.94
2022-10-22T13:09:46.302Z,154949.50
2022-10-22T13:12:19.276Z,154910.50
2022-10-22T13:14:51.678Z,154903.97
2022-10-22T13:17:41.131Z,154906.59
2022-10-22T13:20:22.314Z,154924.78
2022-10-22T13:23:06.927Z,154898.78
2022-10-22T13:25:40.164Z,154842.78
2022-10-22T13:28:24.945Z,154825.91
2022-10-22T13:30:59.096Z,154771.25
2022-10-22T13:33:33.762Z,154719.19
2022-10-22T13:36:04.920Z,154702.31
2022-10-22T13:38:40.882Z,154682.81
2022-10-22T13:41:29.496Z,154667.19
2022-10-22T13:44:01.763Z,154643.78
2022-10-22T13:46:32.928Z,154643.78
2022-10-22T13:49:14.926Z,154590.41
2022-10-22T13:51:47.091Z,154567.00
2022-10-22T13:54:27.083Z,154535.81
2022-10-22T13:56:58.490Z,154533.22
2022-10-22T13:59:36.994Z,154517.59
2022-10-22T14:02:16.815Z,154494.22
2022-10-22T14:04:48.357Z,154450.03
2022-10-22T14:07:20.337Z,154470.81
2022-10-22T14:09:54.526Z,154459.13
2022-10-22T14:12:25.949Z,154440.91
2022-10-22T14:14:58.423Z,154425.31
2022-10-22T14:17:36.185Z,154426.63
2022-10-22T14:20:07.709Z,154411.03
2022-10-22T14:22:38.506Z,154360.34
2022-10-22T14:25:16.618Z,154386.34
2022-10-22T14:27:48.741Z,154318.75
2022-10-22T14:30:22.111Z,154281.03
2022-10-22T14:32:57.281Z,154258.94
2022-10-22T14:35:28.573Z,154249.88
2022-10-22T14:37:59.526Z,154229.06
2022-10-22T14:40:33.198Z,154232.97
2022-10-22T14:43:04.474Z,154201.81
2022-10-22T14:45:35.803Z,154194.00
2022-10-22T14:48:06.909Z,154210.91
2022-10-22T14:50:38.887Z,154201.81
2022-10-22T14:53:09.949Z,154188.81
2022-10-22T14:55:44.492Z,154155.00
2022-10-22T14:58:15.247Z,154158.94
2022-10-22T15:00:48.834Z,154139.44
2022-10-22T15:03:20.361Z,154139.44
2022-10-22T15:05:56.249Z,154151.16
2022-10-22T15:08:27.965Z,154138.16
2022-10-22T15:11:07.931Z,154096.63
2022-10-22T15:13:39.727Z,154087.53
2022-10-22T15:16:15.430Z,154090.09
2022-10-22T15:18:46.497Z,154057.66
2022-10-22T15:21:21.255Z,154064.13
2022-10-22T15:23:54.067Z,154048.56
2022-10-22T15:26:28.235Z,154029.09
2022-10-22T15:28:59.980Z,154031.69
2022-10-22T15:31:50.879Z,154003.06
2022-10-22T15:34:26.800Z,154008.28
2022-10-22T15:36:59.853Z,153974.50
2022-10-22T15:39:32.979Z,153975.78
2022-10-22T15:42:07.797Z,153974.50
2022-10-22T15:44:40.204Z,153943.38
2022-10-22T15:47:11.720Z,153931.66
2022-10-22T15:49:45.156Z,153938.19
2022-10-22T15:52:16.509Z,153929.09
2022-10-22T15:54:47.673Z,153933.00
2022-10-22T15:57:21.448Z,153916.09
2022-10-22T15:59:52.362Z,153912.22
2022-10-22T16:02:22.468Z,153884.94
2022-10-22T16:04:52.774Z,153887.56
2022-10-22T16:07:24.729Z,153879.75
2022-10-22T16:09:59.082Z,153877.13
2022-10-22T16:12:32.123Z,153862.91
2022-10-22T16:15:02.415Z,153859.00
2022-10-22T16:17:32.681Z,153864.19
2022-10-22T16:20:05.188Z,153866.75
2022-10-22T16:22:37.482Z,153842.09
2022-10-22T16:25:11.137Z,153839.53
2022-10-22T16:27:44.129Z,153835.63
2022-10-22T16:30:16.020Z,153803.22
2022-10-22T16:32:51.938Z,153773.38
2022-10-22T16:35:22.319Z,153747.38
2022-10-22T16:37:52.783Z,153731.84
2022-10-22T16:40:23.138Z,153696.75
2022-10-22T16:42:56.488Z,153668.22
2022-10-22T16:45:29.892Z,153657.84
2022-10-22T16:48:00.555Z,153668.22
2022-10-22T16:50:31.367Z,153634.53
2022-10-22T16:53:01.560Z,153594.28
2022-10-22T16:55:31.858Z,153578.72
2022-10-22T16:58:04.528Z,153574.81
2022-10-22T17:00:38.844Z,153570.97
2022-10-22T17:03:09.945Z,153546.34
2022-10-22T17:05:40.038Z,153539.81
2022-10-22T17:08:10.045Z,153489.28
2022-10-22T17:10:41.626Z,153467.25
2022-10-22T17:13:14.328Z,153452.97
2022-10-22T17:15:47.745Z,153443.91
2022-10-22T17:18:18.599Z,153438.72
2022-10-22T17:20:48.789Z,153424.47
2022-10-22T17:23:19.024Z,153424.47
2022-10-22T17:25:49.420Z,153416.72
2022-10-22T17:28:22.502Z,153407.63
2022-10-22T17:30:53.472Z,153407.63
2022-10-22T17:33:23.998Z,153411.53
2022-10-22T17:35:54.492Z,153402.44
2022-10-22T17:38:24.631Z,153399.84
2022-10-22T17:40:54.764Z,153388.19
2022-10-22T17:43:27.530Z,153377.81
2022-10-22T17:46:06.878Z,153364.84
2022-10-22T17:48:38.114Z,153363.56
2022-10-22T17:51:10.341Z,153368.75
2022-10-22T17:53:43.715Z,153368.75
2022-10-22T17:56:16.421Z,153351.84
2022-10-22T17:58:49.521Z,153350.56
2022-10-22T18:01:22.740Z,153372.63
2022-10-22T18:03:52.885Z,153360.94
2022-10-22T18:06:24.031Z,153350.56
2022-10-22T18:08:56.490Z,153350.56
2022-10-22T18:11:31.643Z,153327.25
2022-10-22T18:14:05.495Z,153341.44
2022-10-22T18:16:36.018Z,153340.16
2022-10-22T18:19:06.806Z,153351.84
2022-10-22T18:21:37.542Z,153348.00
2022-10-22T18:24:08.726Z,153349.28
2022-10-22T18:26:41.479Z,153341.44
2022-10-22T18:29:19.967Z,153341.44
2022-10-22T18:31:52.659Z,153336.28
2022-10-22T18:34:24.101Z,153329.81
2022-10-22T18:36:56.405Z,153331.09
2022-10-22T18:39:28.642Z,153333.69
2022-10-22T18:42:00.096Z,153342.78
2022-10-22T18:44:33.170Z,153332.41
2022-10-22T18:47:03.709Z,153320.72
2022-10-22T18:49:34.672Z,153329.81
2022-10-22T18:52:05.928Z,153320.72
2022-10-22T18:54:36.815Z,153312.97
2022-10-22T18:57:07.610Z,153319.44
2022-10-22T18:59:40.914Z,153315.53
2022-10-22T19:02:16.240Z,153306.47
2022-10-22T19:04:47.391Z,153316.81
2022-10-22T19:07:17.727Z,153309.06
2022-10-22T19:09:48.229Z,153301.28
2022-10-22T19:12:21.762Z,153300.00
2022-10-22T19:14:54.744Z,153296.09
2022-10-22T19:20:05.731Z,153297.38
2022-10-22T19:22:38.304Z,153297.38
2022-10-22T19:25:11.982Z,153294.81
2022-10-22T19:27:53.082Z,153288.34
2022-10-22T19:30:26.521Z,153271.47
2022-10-22T19:32:56.814Z,153252.03
2022-10-22T19:35:27.239Z,153249.47
2022-10-22T19:37:59.555Z,153249.47
2022-10-22T19:40:29.795Z,153239.13
2022-10-22T19:43:00.221Z,153230.03
2022-10-22T19:45:33.483Z,153232.63
2022-10-22T19:48:05.861Z,153219.69
2022-10-22T19:50:36.724Z,153206.72
2022-10-22T19:53:07.725Z,153186.00
2022-10-22T19:55:38.095Z,153187.28
2022-10-22T19:58:09.513Z,153173.03
2022-10-22T20:00:43.622Z,153188.56
2022-10-22T20:03:16.611Z,153162.66
2022-10-22T20:05:46.844Z,153152.31
2022-10-22T20:08:17.368Z,153157.47
2022-10-22T20:10:51.180Z,153139.38
2022-10-22T20:13:21.568Z,153157.47
2022-10-22T20:16:04.124Z,153141.94
2022-10-22T20:18:34.939Z,153131.59
2022-10-22T20:21:08.351Z,153145.84
2022-10-22T20:23:40.891Z,153149.75
2022-10-22T20:26:14.061Z,153128.97
2022-10-22T20:28:44.596Z,153126.41
2022-10-22T20:31:21.125Z,153118.63
2022-10-22T20:33:53.225Z,153106.97
2022-10-22T20:36:27.034Z,153106.97
2022-10-22T20:39:02.799Z,153121.25
2022-10-22T20:41:34.342Z,153106.97
2022-10-22T20:44:06.193Z,153095.34
2022-10-22T20:46:42.740Z,153087.56
2022-10-22T20:49:17.775Z,153083.66
2022-10-22T20:51:49.142Z,153088.84
2022-10-22T20:54:22.622Z,153072.03
2022-10-22T20:56:55.063Z,153056.50
2022-10-22T20:59:32.500Z,153059.06
2022-10-22T21:02:19.214Z,153052.59
2022-10-22T21:04:50.181Z,153052.59
2022-10-22T21:07:35.231Z,153061.66
2022-10-22T21:10:05.475Z,153044.81
2022-10-22T21:12:43.097Z,153038.34
2022-10-22T21:15:21.278Z,153026.72
2022-10-22T21:18:09.264Z,153009.84
2022-10-22T21:23:33.148Z,152989.16
2022-10-22T21:26:04.682Z,152999.50
2022-10-22T21:28:38.019Z,152978.78
2022-10-22T21:31:11.645Z,152965.81
2022-10-22T21:33:44.942Z,152958.09
2022-10-22T21:36:22.476Z,152949.03
2022-10-22T21:39:09.112Z,152938.63
2022-10-22T21:41:45.038Z,152932.16
2022-10-22T21:44:18.386Z,152934.72
2022-10-22T21:46:53.718Z,152942.50
2022-10-22T21:49:33.422Z,152938.63
2022-10-22T21:52:07.671Z,152949.03
2022-10-22T21:54:43.858Z,152939.91
2022-10-22T21:57:14.461Z,152949.03
2022-10-22T21:59:46.196Z,152955.47
2022-10-22T22:02:23.121Z,152941.22
2022-10-22T22:04:56.212Z,152927.00
2022-10-22T22:07:26.750Z,152930.84
2022-10-22T22:09:57.873Z,152929.56
2022-10-22T22:12:27.939Z,152924.38
2022-10-22T22:20:40.113Z,152899.78
2022-10-22T22:23:17.564Z,152895.88
2022-10-22T22:25:48.071Z,152901.06
2022-10-22T22:28:18.383Z,152888.16
2022-10-22T22:30:50.048Z,152888.16
2022-10-22T22:33:20.762Z,152882.97
2022-10-22T22:35:54.009Z,152882.97
2022-10-22T22:38:24.786Z,152884.25
2022-10-22T22:40:54.808Z,152875.19
2022-10-22T22:43:25.341Z,152886.88
2022-10-22T22:46:02.323Z,152880.38
2022-10-22T22:48:32.924Z,152893.31
2022-10-22T22:51:06.724Z,152917.91
2022-10-22T22:53:38.069Z,152961.97
2022-10-22T22:56:10.372Z,152968.44
2022-10-22T22:58:42.961Z,152985.25
2022-10-22T23:01:15.353Z,152995.66
2022-10-22T23:03:51.299Z,153015.03
2022-10-22T23:06:25.691Z,153025.44
2022-10-22T23:08:57.643Z,153028.00
2022-10-22T23:11:30.563Z,153048.69
2022-10-22T23:14:02.606Z,153065.56
2022-10-22T23:16:34.820Z,153090.16
2022-10-22T23:19:08.815Z,153091.44
2022-10-22T23:21:43.596Z,153086.28
2022-10-22T23:24:17.139Z,153099.19
2022-10-22T23:26:50.168Z,153125.13
2022-10-22T23:29:22.503Z,153132.88
2022-10-22T23:31:54.110Z,153132.88
2022-10-22T23:34:26.954Z,153156.19
2022-10-22T23:37:00.884Z,153152.31
2022-10-22T23:39:32.594Z,153167.84
2022-10-22T23:42:03.619Z,153164.00
2022-10-22T23:44:33.704Z,153170.47
2022-10-22T23:47:04.212Z,153180.81
2022-10-22T23:49:34.616Z,153184.72
2022-10-22T23:52:08.147Z,153180.81
2022-10-22T23:54:52.605Z,153204.16
2022-10-22T23:57:23.455Z,153183.38
2022-10-22T23:59:56.292Z,153204.16
